createdAt,value
2024-02-18T00:01:00.819Z,11.75
2024-02-18T00:03:28.163Z,53.08
2024-02-18T00:05:56.087Z,31.85
2024-02-18T00:08:22.979Z,36.67
2024-02-18T00:10:49.823Z,13.30
2024-02-18T00:13:16.680Z,17.80
2024-02-18T00:15:43.500Z,38.35
2024-02-18T00:18:11.443Z,69.53
2024-02-18T00:20:38.380Z,70.63
2024-02-18T00:23:05.112Z,40.25
2024-02-18T00:25:31.965Z,286.30
2024-02-18T00:27:59.786Z,67.28
2024-02-18T00:30:27.785Z,386.98
2024-02-18T00:32:54.815Z,449.75
2024-02-18T00:35:21.697Z,164.63
2024-02-18T00:37:48.432Z,540.28
2024-02-18T00:40:15.354Z,407.05
2024-02-18T00:42:42.190Z,405.48
2024-02-18T00:45:09.451Z,421.85
2024-02-18T00:50:03.149Z,382.70
2024-02-18T00:52:30.059Z,270.73
2024-02-18T00:54:57.036Z,266.90
2024-02-18T00:57:23.915Z,260.38
2024-02-18T00:59:50.736Z,293.20
2024-02-18T01:02:17.506Z,139.30
2024-02-18T01:04:44.260Z,124.45
2024-02-18T01:07:11.256Z,139.98
2024-02-18T01:09:38.213Z,136.63
2024-02-18T01:12:05.534Z,106.03
2024-02-18T01:16:59.610Z,100.85
2024-02-18T01:19:26.869Z,61.95
2024-02-18T01:21:53.950Z,59.75
2024-02-18T01:24:20.822Z,118.65
2024-02-18T01:26:47.568Z,132.07
2024-02-18T01:29:14.330Z,181.10
2024-02-18T01:31:41.364Z,121.55
2024-02-18T01:34:08.281Z,88.22
2024-02-18T01:36:35.299Z,77.32
2024-02-18T01:39:02.617Z,206.18
2024-02-18T01:43:55.950Z,120.93
2024-02-18T01:46:22.923Z,70.15
2024-02-18T01:48:50.542Z,14.57
2024-02-18T01:51:17.434Z,123.72
2024-02-18T01:53:45.075Z,123.70
2024-02-18T01:56:13.204Z,107.78
2024-02-18T01:58:41.074Z,32.58
2024-02-18T02:01:08.102Z,31.73
2024-02-18T02:03:39.059Z,29.75
2024-02-18T02:06:07.943Z,29.35
2024-02-18T02:08:34.859Z,21.30
2024-02-18T02:11:02.339Z,40.45
2024-02-18T02:13:29.184Z,28.23
2024-02-18T02:15:56.087Z,64.35
2024-02-18T02:18:23.094Z,164.45
2024-02-18T02:20:49.853Z,16.30
2024-02-18T02:23:17.768Z,23.10
2024-02-18T02:25:44.548Z,19.23
2024-02-18T02:28:20.245Z,17.15
2024-02-18T02:30:50.859Z,54.85
2024-02-18T02:33:22.746Z,47.17
2024-02-18T02:35:50.143Z,53.50
2024-02-18T02:38:16.985Z,59.35
2024-02-18T02:40:43.818Z,101.82
2024-02-18T02:43:12.197Z,81.47
2024-02-18T02:45:39.269Z,125.63
2024-02-18T02:48:06.404Z,147.30
2024-02-18T02:50:35.934Z,168.57
2024-02-18T02:53:04.902Z,118.90
2024-02-18T02:57:58.399Z,137.18
2024-02-18T03:00:26.386Z,125.65
2024-02-18T03:02:53.240Z,118.35
2024-02-18T03:05:20.045Z,136.70
2024-02-18T03:07:46.904Z,155.27
2024-02-18T03:10:13.864Z,85.03
2024-02-18T03:12:41.746Z,78.40
2024-02-18T03:15:09.405Z,101.82
2024-02-18T03:17:37.232Z,63.58
2024-02-18T03:20:08.751Z,71.28
2024-02-18T03:22:35.759Z,122.97
2024-02-18T03:25:03.044Z,125.68
2024-02-18T03:27:29.990Z,111.70
2024-02-18T03:29:57.267Z,39.72
2024-02-18T03:34:50.890Z,97.60
2024-02-18T03:37:17.709Z,88.82
2024-02-18T03:39:44.469Z,105.18
2024-02-18T03:42:11.398Z,87.53
2024-02-18T03:44:38.182Z,115.57
2024-02-18T03:47:05.205Z,80.45
2024-02-18T03:49:32.054Z,43.17
2024-02-18T03:51:59.243Z,55.85
2024-02-18T03:54:27.678Z,123.78
2024-02-18T03:56:54.606Z,62.42
2024-02-18T03:59:21.662Z,113.22
2024-02-18T04:01:49.134Z,74.82
2024-02-18T04:04:16.763Z,91.50
2024-02-18T04:06:44.308Z,10.10
2024-02-18T04:09:14.114Z,56.45
2024-02-18T04:11:41.013Z,101.07
2024-02-18T04:14:08.742Z,29.67
2024-02-18T04:16:35.793Z,67.90
2024-02-18T04:19:02.707Z,61.50
2024-02-18T04:21:29.757Z,182.68
2024-02-18T04:23:56.520Z,163.75
2024-02-18T04:26:23.996Z,118.22
2024-02-18T04:28:50.882Z,241.95
2024-02-18T04:31:17.750Z,85.57
2024-02-18T04:33:44.794Z,229.75
2024-02-18T04:36:13.004Z,85.28
2024-02-18T04:38:41.031Z,145.60
2024-02-18T04:41:07.829Z,237.68
2024-02-18T04:43:34.612Z,159.00
2024-02-18T04:46:01.451Z,116.85
2024-02-18T04:48:28.366Z,187.77
2024-02-18T04:50:55.208Z,133.75
2024-02-18T04:53:21.997Z,190.32
2024-02-18T04:55:48.812Z,135.90
2024-02-18T04:58:15.622Z,171.80
2024-02-18T05:00:42.466Z,171.55
2024-02-18T05:03:09.399Z,234.30
2024-02-18T05:05:36.317Z,131.88
2024-02-18T05:08:03.225Z,155.00
2024-02-18T05:10:29.977Z,191.82
2024-02-18T05:12:56.823Z,136.75
2024-02-18T05:15:25.447Z,176.55
2024-02-18T05:17:52.429Z,125.90
2024-02-18T05:20:19.283Z,52.90
2024-02-18T05:22:46.053Z,37.40
2024-02-18T05:25:13.013Z,53.97
2024-02-18T05:27:39.918Z,42.47
2024-02-18T05:30:07.451Z,0.88
2024-02-18T05:32:34.690Z,0.20
2024-02-18T05:37:28.236Z,0.20
2024-02-18T05:39:55.011Z,0.60
2024-02-18T05:42:21.837Z,0.20
2024-02-18T05:44:48.720Z,0.20
2024-02-18T05:47:15.759Z,0.30
2024-02-18T05:49:44.542Z,0.20
2024-02-18T05:52:12.219Z,2.08
2024-02-18T05:57:07.186Z,0.20
2024-02-18T05:59:34.350Z,0.20
2024-02-18T06:02:01.240Z,0.20
2024-02-18T06:04:28.155Z,0.20
2024-02-18T06:06:55.074Z,0.20
2024-02-18T06:09:22.129Z,0.20
2024-02-18T06:11:49.512Z,0.20
2024-02-18T06:14:16.586Z,0.30
2024-02-18T06:16:43.472Z,1.17
2024-02-18T06:19:14.558Z,1.17
2024-02-18T06:21:43.904Z,0.50
2024-02-18T06:24:10.753Z,0.40
2024-02-18T06:26:44.214Z,1.17
2024-02-18T06:29:10.982Z,0.52
2024-02-18T06:31:37.761Z,0.15
2024-02-18T06:34:04.651Z,0.45
2024-02-18T06:36:37.142Z,0.20
2024-02-18T06:39:04.606Z,0.20
2024-02-18T06:43:58.619Z,0.45
2024-02-18T06:46:25.470Z,0.20
2024-02-18T06:48:53.080Z,0.30
2024-02-18T06:51:20.037Z,0.55
2024-02-18T06:53:46.795Z,1.35
2024-02-18T06:56:13.524Z,0.50
2024-02-18T06:58:40.290Z,0.20
2024-02-18T07:01:07.157Z,0.43
2024-02-18T07:03:34.334Z,0.20
2024-02-18T07:06:01.454Z,0.25
2024-02-18T07:10:54.943Z,0.55
2024-02-18T07:13:21.713Z,0.30
2024-02-18T07:15:48.438Z,0.30
2024-02-18T07:18:15.344Z,3.90
2024-02-18T07:20:42.262Z,1.05
2024-02-18T07:23:08.994Z,0.50
2024-02-18T07:25:35.754Z,0.73
2024-02-18T07:28:02.669Z,1.42
2024-02-18T07:30:29.590Z,0.45
2024-02-18T07:32:56.458Z,0.45
2024-02-18T07:35:23.533Z,1.20
2024-02-18T07:37:50.394Z,0.30
2024-02-18T07:40:17.474Z,1.85
2024-02-18T07:42:47.529Z,0.20
2024-02-18T07:45:14.311Z,0.20
2024-02-18T07:47:41.456Z,0.30
2024-02-18T07:50:09.017Z,0.50
2024-02-18T07:52:36.054Z,1.20
2024-02-18T07:55:03.995Z,0.15
2024-02-18T07:57:30.862Z,0.20
2024-02-18T07:59:58.078Z,0.20
2024-02-18T08:02:28.238Z,0.47
2024-02-18T08:04:55.260Z,0.75
2024-02-18T08:07:24.806Z,0.85
2024-02-18T08:09:52.287Z,0.20
2024-02-18T08:12:19.145Z,0.30
2024-02-18T08:14:45.949Z,0.25
2024-02-18T08:17:12.778Z,0.63
2024-02-18T08:19:39.607Z,0.75
2024-02-18T08:22:06.459Z,0.30
2024-02-18T08:24:33.460Z,1.08
2024-02-18T08:27:01.474Z,0.40
2024-02-18T08:29:29.004Z,0.47
2024-02-18T08:31:55.899Z,0.45
2024-02-18T08:34:23.715Z,0.20
2024-02-18T08:36:50.652Z,1.00
2024-02-18T08:39:17.464Z,0.20
2024-02-18T08:41:44.207Z,0.13
2024-02-18T08:44:11.106Z,0.20
2024-02-18T08:46:38.737Z,0.15
2024-02-18T08:49:05.753Z,4.18
2024-02-18T08:51:32.733Z,0.20
2024-02-18T08:54:01.516Z,0.40
2024-02-18T08:56:28.380Z,1.92
2024-02-18T08:58:55.865Z,0.20
2024-02-18T09:01:24.520Z,0.75
2024-02-18T09:03:51.982Z,0.20
2024-02-18T09:06:19.460Z,0.45
2024-02-18T09:11:13.432Z,2.17
2024-02-18T09:13:40.292Z,0.20
2024-02-18T09:16:07.905Z,0.20
2024-02-18T09:18:35.691Z,0.20
2024-02-18T09:21:06.528Z,0.10
2024-02-18T09:23:33.566Z,0.50
2024-02-18T09:26:00.680Z,1.13
2024-02-18T09:30:56.679Z,0.75
2024-02-18T09:33:24.242Z,0.20
2024-02-18T09:35:51.549Z,0.10
2024-02-18T09:40:45.384Z,0.28
2024-02-18T09:43:14.429Z,0.20
2024-02-18T09:45:44.959Z,0.10
2024-02-18T09:48:14.716Z,0.63
2024-02-18T09:50:41.895Z,0.20
2024-02-18T09:55:38.569Z,0.30
2024-02-18T09:58:05.443Z,0.15
2024-02-18T10:00:32.659Z,0.98
2024-02-18T10:02:59.564Z,0.20
2024-02-18T10:05:26.416Z,0.13
2024-02-18T10:08:00.445Z,0.10
2024-02-18T10:10:27.232Z,0.30
2024-02-18T10:12:54.341Z,0.20
2024-02-18T10:15:21.188Z,0.57
2024-02-18T10:17:47.987Z,0.40
2024-02-18T10:20:16.013Z,0.10
2024-02-18T10:22:43.594Z,0.38
2024-02-18T10:25:11.558Z,0.10
2024-02-18T10:27:40.092Z,14.40
2024-02-18T10:30:11.533Z,14.55
2024-02-18T10:32:38.400Z,15.65
2024-02-18T10:35:09.844Z,15.48
2024-02-18T10:37:38.567Z,12.40
2024-02-18T10:40:25.190Z,14.32
2024-02-18T10:42:53.342Z,27.48
2024-02-18T10:45:22.551Z,50.85
2024-02-18T10:47:54.885Z,14.50
2024-02-18T10:50:27.465Z,11.25
2024-02-18T10:53:32.582Z,12.43
2024-02-18T10:56:06.780Z,11.98
2024-02-18T10:59:08.898Z,12.48
2024-02-18T11:01:42.230Z,11.52
2024-02-18T11:04:11.054Z,9.80
2024-02-18T11:06:39.069Z,12.32
2024-02-18T11:09:12.695Z,8.55
2024-02-18T11:11:42.442Z,7.28
2024-02-18T11:14:12.450Z,5.15
2024-02-18T11:16:43.273Z,6.43
2024-02-18T11:19:11.581Z,4.75
2024-02-18T11:21:39.460Z,4.32
2024-02-18T11:24:08.618Z,4.78
2024-02-18T11:26:35.486Z,5.75
2024-02-18T11:29:03.383Z,3.50
2024-02-18T11:31:31.479Z,5.95
2024-02-18T11:33:58.593Z,3.15
2024-02-18T11:36:28.285Z,6.90
2024-02-18T11:38:58.730Z,7.93
2024-02-18T11:41:33.994Z,3.95
2024-02-18T11:44:11.408Z,4.20
2024-02-18T11:46:44.872Z,3.50
2024-02-18T11:49:12.744Z,5.20
2024-02-18T11:51:40.946Z,5.88
2024-02-18T11:54:07.698Z,4.10
2024-02-18T11:56:34.536Z,5.18
2024-02-18T11:59:01.280Z,3.63
2024-02-18T12:01:28.891Z,3.08
2024-02-18T12:03:56.755Z,8.95
2024-02-18T12:06:27.152Z,5.13
2024-02-18T12:08:54.095Z,5.03
2024-02-18T12:11:21.005Z,3.63
2024-02-18T12:16:20.154Z,3.42
2024-02-18T12:18:47.194Z,13.35
2024-02-18T12:21:18.291Z,20.30
2024-02-18T12:23:45.090Z,9.90
2024-02-18T12:26:13.975Z,17.83
2024-02-18T12:28:41.103Z,5.13
2024-02-18T12:31:08.438Z,6.60
2024-02-18T12:33:35.618Z,7.97
2024-02-18T12:36:02.724Z,8.52
2024-02-18T12:40:58.884Z,5.82
2024-02-18T12:44:10.486Z,5.28
2024-02-18T12:46:16.421Z,6.70
2024-02-18T12:48:43.625Z,9.07
2024-02-18T12:51:16.163Z,5.68
2024-02-18T12:53:44.263Z,6.68
2024-02-18T12:56:13.075Z,7.60
2024-02-18T12:58:40.794Z,8.13
2024-02-18T13:01:11.583Z,4.25
2024-02-18T13:03:39.970Z,5.38
2024-02-18T13:06:08.151Z,4.95
2024-02-18T13:08:35.316Z,5.70
2024-02-18T13:13:29.513Z,4.57
2024-02-18T13:15:56.654Z,5.60
2024-02-18T13:20:50.266Z,12.23
2024-02-18T13:23:17.055Z,4.13
2024-02-18T13:25:44.072Z,8.27
2024-02-18T13:30:40.172Z,7.10
2024-02-18T13:33:07.038Z,5.35
2024-02-18T13:35:34.702Z,4.78
2024-02-18T13:38:01.866Z,4.13
2024-02-18T13:42:57.915Z,4.70
2024-02-18T13:45:25.571Z,5.68
2024-02-18T13:47:58.767Z,5.25
2024-02-18T13:50:28.210Z,5.30
2024-02-18T13:52:55.195Z,4.97
2024-02-18T13:55:22.102Z,4.55
2024-02-18T14:00:15.994Z,5.75
2024-02-18T14:02:42.981Z,4.30
2024-02-18T14:05:17.368Z,3.88
2024-02-18T14:07:44.177Z,3.75
2024-02-18T14:10:12.634Z,5.68
2024-02-18T14:12:39.552Z,4.65
2024-02-18T14:15:07.463Z,5.40
2024-02-18T14:17:34.202Z,7.07
2024-02-18T14:20:02.251Z,5.32
2024-02-18T14:22:30.554Z,14.43
2024-02-18T14:24:59.036Z,5.68
2024-02-18T14:27:26.029Z,5.63
2024-02-18T14:32:20.261Z,3.90
2024-02-18T14:34:47.069Z,4.47
2024-02-18T14:37:13.886Z,7.70
2024-02-18T14:39:41.056Z,5.50
2024-02-18T14:42:07.777Z,5.45
2024-02-18T14:44:34.512Z,7.13
2024-02-18T14:47:02.685Z,3.67
2024-02-18T14:49:35.834Z,8.35
2024-02-18T14:52:08.783Z,11.00
2024-02-18T14:54:35.601Z,10.52
2024-02-18T14:57:02.337Z,6.18
2024-02-18T14:59:29.084Z,5.30
2024-02-18T15:01:55.909Z,5.82
2024-02-18T15:04:22.700Z,6.60
2024-02-18T15:06:50.631Z,6.43
2024-02-18T15:09:20.745Z,6.20
2024-02-18T15:11:47.512Z,5.15
2024-02-18T15:14:14.240Z,4.00
2024-02-18T15:16:40.962Z,5.00
2024-02-18T15:19:08.018Z,4.82
2024-02-18T15:21:35.044Z,4.90
2024-02-18T15:26:28.550Z,6.82
2024-02-18T15:28:55.416Z,5.63
2024-02-18T15:31:22.310Z,5.38
2024-02-18T15:33:50.153Z,5.60
2024-02-18T15:36:16.996Z,7.63
2024-02-18T15:38:45.443Z,6.53
2024-02-18T15:41:12.227Z,5.63
2024-02-18T15:43:39.536Z,4.32
2024-02-18T15:46:06.360Z,5.22
2024-02-18T15:48:33.488Z,6.97
2024-02-18T15:51:00.402Z,5.43
2024-02-18T15:53:27.577Z,29.45
2024-02-18T15:56:01.915Z,7.70
2024-02-18T15:58:30.832Z,5.55
2024-02-18T16:00:57.784Z,11.02
2024-02-18T16:05:51.605Z,5.50
2024-02-18T16:08:19.697Z,5.72
2024-02-18T16:10:47.126Z,5.82
2024-02-18T16:13:14.306Z,6.57
2024-02-18T16:15:41.301Z,7.32
2024-02-18T16:18:09.022Z,5.82
2024-02-18T16:20:35.799Z,8.57
2024-02-18T16:23:04.101Z,5.93
2024-02-18T16:25:32.043Z,7.07
2024-02-18T16:27:58.812Z,6.60
2024-02-18T16:30:25.548Z,5.35
2024-02-18T16:32:52.335Z,6.18
2024-02-18T16:35:19.578Z,6.63
2024-02-18T16:37:46.618Z,4.65
2024-02-18T16:40:13.540Z,6.30
2024-02-18T16:42:40.374Z,8.55
2024-02-18T16:45:08.391Z,7.65
2024-02-18T16:47:36.243Z,5.22
2024-02-18T16:52:29.996Z,125.40
2024-02-18T16:54:56.848Z,7.63
2024-02-18T16:57:24.316Z,9.32
2024-02-18T16:59:51.524Z,5.55
2024-02-18T17:04:45.370Z,7.05
2024-02-18T17:07:14.658Z,8.88
2024-02-18T17:09:41.500Z,7.63
2024-02-18T17:12:09.214Z,7.55
2024-02-18T17:14:38.274Z,7.13
2024-02-18T17:17:05.478Z,9.32
2024-02-18T17:21:59.773Z,7.78
2024-02-18T17:26:59.567Z,5.63
2024-02-18T17:29:26.375Z,6.05
2024-02-18T17:31:53.316Z,6.40
2024-02-18T17:34:25.803Z,7.47
2024-02-18T17:36:53.506Z,6.60
2024-02-18T17:39:21.122Z,7.85
2024-02-18T17:41:47.936Z,6.25
2024-02-18T17:44:14.777Z,6.18
2024-02-18T17:46:41.876Z,8.43
2024-02-18T17:51:37.078Z,12.40
2024-02-18T17:54:04.438Z,8.13
2024-02-18T17:56:35.075Z,9.98
2024-02-18T17:59:02.452Z,9.63
2024-02-18T18:03:56.105Z,10.68
2024-02-18T18:06:22.875Z,9.25
2024-02-18T18:08:49.617Z,10.05
2024-02-18T18:11:16.453Z,8.70
2024-02-18T18:13:43.843Z,13.15
2024-02-18T18:16:10.704Z,8.68
2024-02-18T18:18:37.638Z,6.78
2024-02-18T18:21:08.499Z,10.00
2024-02-18T18:23:35.591Z,11.15
2024-02-18T18:26:02.426Z,12.75
2024-02-18T18:28:29.257Z,11.70
2024-02-18T18:30:56.134Z,14.30
2024-02-18T18:33:23.069Z,10.52
2024-02-18T18:35:51.192Z,11.95
2024-02-18T18:38:23.513Z,11.85
2024-02-18T18:40:50.365Z,12.05
2024-02-18T18:43:17.200Z,12.15
2024-02-18T18:45:44.193Z,14.15
2024-02-18T18:48:11.022Z,9.82
2024-02-18T18:50:37.835Z,12.18
2024-02-18T18:53:04.825Z,11.43
2024-02-18T18:55:31.581Z,8.02
2024-02-18T18:58:00.187Z,11.45
2024-02-18T19:00:32.202Z,8.63
2024-02-18T19:02:59.215Z,9.60
2024-02-18T19:05:26.291Z,7.05
2024-02-18T19:10:20.317Z,12.00
2024-02-18T19:12:47.701Z,13.75
2024-02-18T19:15:14.610Z,11.50
2024-02-18T19:17:41.507Z,8.40
2024-02-18T19:20:09.094Z,10.82
2024-02-18T19:22:38.923Z,9.02
2024-02-18T19:25:06.766Z,6.38
2024-02-18T19:27:33.562Z,7.28
2024-02-18T19:30:02.055Z,23.38
2024-02-18T19:32:29.092Z,9.85
2024-02-18T19:34:56.142Z,7.82
2024-02-18T19:39:49.823Z,7.60
2024-02-18T19:42:16.588Z,9.82
2024-02-18T19:44:43.526Z,10.02
2024-02-18T19:47:10.327Z,11.45
2024-02-18T19:49:37.164Z,10.27
2024-02-18T19:52:04.304Z,12.70
2024-02-18T19:54:31.717Z,12.35
2024-02-18T19:56:58.882Z,12.13
2024-02-18T19:59:27.641Z,12.20
2024-02-18T20:01:55.845Z,10.57
2024-02-18T20:04:22.947Z,11.05
2024-02-18T20:06:50.754Z,13.05
2024-02-18T20:09:20.748Z,9.63
2024-02-18T20:11:51.776Z,10.82
2024-02-18T20:14:21.685Z,10.85
2024-02-18T20:16:48.413Z,10.23
2024-02-18T20:19:16.268Z,10.13
2024-02-18T20:21:43.595Z,10.60
2024-02-18T20:24:10.425Z,12.52
2024-02-18T20:26:37.784Z,7.25
2024-02-18T20:29:04.658Z,10.43
2024-02-18T20:31:31.416Z,7.88
2024-02-18T20:33:58.258Z,9.35
2024-02-18T20:36:25.165Z,10.57
2024-02-18T20:38:54.552Z,10.02
2024-02-18T20:41:22.695Z,7.55
2024-02-18T20:43:49.671Z,6.93
2024-02-18T20:46:19.720Z,8.45
2024-02-18T20:48:48.219Z,12.98
2024-02-18T20:51:16.704Z,10.75
2024-02-18T20:53:43.819Z,10.73
2024-02-18T20:56:10.545Z,18.17
2024-02-18T20:58:40.200Z,13.50
2024-02-18T21:01:08.541Z,11.23
2024-02-18T21:03:35.442Z,10.75
2024-02-18T21:06:02.932Z,12.60
2024-02-18T21:08:30.840Z,10.75
2024-02-18T21:10:57.906Z,13.40
2024-02-18T21:13:25.119Z,13.68
2024-02-18T21:18:19.354Z,13.75
2024-02-18T21:23:13.400Z,12.05
2024-02-18T21:25:40.328Z,13.85
2024-02-18T21:28:07.378Z,19.63
2024-02-18T21:30:34.275Z,14.13
2024-02-18T21:33:01.312Z,16.35
2024-02-18T21:35:28.190Z,25.25
2024-02-18T21:37:54.959Z,17.75
2024-02-18T21:40:21.789Z,14.25
2024-02-18T21:42:48.617Z,16.95
2024-02-18T21:45:15.542Z,11.38
2024-02-18T21:47:42.440Z,11.20
2024-02-18T21:50:15.994Z,11.27
2024-02-18T21:52:42.883Z,12.00
2024-02-18T21:55:09.776Z,11.55
2024-02-18T21:57:36.868Z,15.00
2024-02-18T22:00:04.642Z,12.07
2024-02-18T22:02:32.137Z,14.85
2024-02-18T22:04:59.213Z,11.77
2024-02-18T22:07:26.067Z,11.05
2024-02-18T22:09:52.898Z,9.23
2024-02-18T22:12:19.673Z,12.40
2024-02-18T22:14:46.429Z,9.23
2024-02-18T22:17:13.188Z,11.13
2024-02-18T22:19:40.170Z,11.00
2024-02-18T22:22:07.090Z,13.50
2024-02-18T22:24:33.907Z,13.88
2024-02-18T22:27:00.753Z,13.50
2024-02-18T22:29:27.509Z,14.50
2024-02-18T22:31:54.373Z,11.40
2024-02-18T22:34:21.286Z,13.55
2024-02-18T22:36:48.278Z,13.82
2024-02-18T22:39:15.060Z,10.35
2024-02-18T22:41:45.135Z,12.38
2024-02-18T22:44:12.970Z,18.77
2024-02-18T22:46:39.756Z,16.25
2024-02-18T22:49:06.572Z,16.02
2024-02-18T22:51:33.626Z,16.90
2024-02-18T22:54:00.406Z,12.50
2024-02-18T22:56:27.212Z,13.27
2024-02-18T22:58:53.949Z,15.40
2024-02-18T23:01:22.173Z,12.48
2024-02-18T23:03:49.100Z,21.17
2024-02-18T23:06:15.972Z,17.38
2024-02-18T23:08:42.820Z,27.80
2024-02-18T23:11:09.689Z,14.95
2024-02-18T23:13:36.534Z,12.85
2024-02-18T23:16:03.553Z,12.30
2024-02-18T23:18:30.491Z,14.73
2024-02-18T23:20:57.298Z,16.77
2024-02-18T23:23:24.111Z,15.77
2024-02-18T23:25:50.894Z,21.02
2024-02-18T23:28:17.876Z,23.13
2024-02-18T23:33:11.566Z,12.27
2024-02-18T23:35:38.435Z,15.15
2024-02-18T23:38:05.587Z,14.40
2024-02-18T23:43:00.275Z,18.67
2024-02-18T23:45:27.362Z,11.77
2024-02-18T23:47:54.170Z,15.98
2024-02-18T23:50:21.039Z,19.27
2024-02-18T23:52:47.801Z,16.80
2024-02-18T23:55:14.626Z,16.80
2024-02-18T23:57:41.462Z,17.15
